Flight Track Log - Related Links

Times and Time Zones

All times are in EDT time to prevent confusion due to time zone crossing. See the BOE5 flight status page for this flight to view local times or setup timezone preferences in your user account.

Time Position Orientation Groundspeed Altitude Reporting Facility
EDT Latitude Longitude Course Direction KTS km/h feet Rate Location/Type
Thu 11:55:08 47.5056 -122.2814 146° Southeast 174 322 1.300  Level Seattle Center
Thu 11:55:45 47.4767 -122.2525 146° Southeast 193 357 2.700 2.510 Climbing Seattle Center
Thu 11:56:46 47.4356 -122.1758 128° Southeast 254 470 5.400 3.049 Climbing Seattle Center
Thu 11:57:47 47.4367 -122.0706 89° East 256 475 8.900 2.852 Climbing Seattle Center
Thu 11:58:48 47.4347 -121.9592 91° East 275 509 11.200 2.311 Climbing Seattle Center
Thu 11:59:49 47.4317 -121.8144 92° East 355 658 13.600 2.852 Climbing Seattle Center
Thu 12:00:50 47.4114 -121.6536 100° East 374 692 17.000 2.852 Climbing Seattle Center
Thu 12:01:51 47.3733 -121.5172 112° Southeast 386 715 19.400 2.508 Climbing Seattle Center
Thu 12:02:52 47.3322 -121.3675 112° Southeast 396 734 22.100 2.459 Climbing Seattle Center
Thu 12:03:53 47.2903 -121.2139 112° Southeast 408 756 24.400 2.115 Climbing Seattle Center
Thu 12:04:54 47.2472 -121.0539 112° Southeast 422 782 26.400 2.066 Climbing Seattle Center
Thu 12:05:55 47.1928 -120.8561 112° Southeast 438 811 28.600 1.672 Climbing Seattle Center
Thu 12:06:56 47.1514 -120.7106 113° Southeast 451 835 29.800 1.131 Climbing Seattle Center
Thu 12:07:57 47.1019 -120.5322 112° Southeast 471 872 30.900 1.180 Climbing Seattle Center
Thu 12:08:58 47.0514 -120.3500 112° Southeast 482 893 32.200 1.328 Climbing Seattle Center
Thu 12:09:59 46.9875 -120.1383 114° Southeast 499 924 33.600 1.328 Climbing Seattle Center
Thu 12:11:00 46.9300 -119.9372 113° Southeast 503 932 34.900 1.328 Climbing Seattle Center
Thu 12:12:01 46.8753 -119.7478 113° Southeast 506 937 36.300 984 Climbing Seattle Center
Thu 12:13:02 46.8211 -119.5622 113° Southeast 502 930 36.900 738 Climbing Seattle Center
Thu 12:14:03 46.7653 -119.3756 114° Southeast 504 933 37.800 738 Climbing Seattle Center
Thu 12:15:04 46.7122 -119.1983 114° Southeast 503 932 38.400 590 Climbing Seattle Center
Thu 12:16:05 46.6564 -119.0117 113° Southeast 503 932 39.000 246 Climbing Seattle Center
Thu 12:17:06 46.5992 -118.8181 113° Southeast 502 930 38.900  Descending Seattle Center
Thu 12:18:07 46.5422 -118.6319 114° Southeast 506 937 39.000 49 Climbing Seattle Center
Thu 12:19:08 46.4850 -118.4489 114° Southeast 502 930 39.000  Level Seattle Center
Thu 12:20:09 46.4175 -118.2283 114° Southeast 502 930 39.000 -49 Level Seattle Center
Thu 12:21:10 46.3597 -118.0453 115° Southeast 504 933 38.900 -49 Descending Seattle Center
Thu 12:22:11 46.3017 -117.8614 115° Southeast 505 935 38.900 49 Level Seattle Center
Thu 12:23:12 46.2447 -117.6789 114° Southeast 503 932 39.000 49 Climbing Seattle Center
Thu 12:24:13 46.1853 -117.4961 115° Southeast 505 935 39.000  Level Seattle Center
Thu 12:25:14 46.1278 -117.3136 114° Southeast 504 933 39.000  Level Seattle Center
Thu 12:26:15 46.0694 -117.1353 115° Southeast 499 924 39.000 -49 Level Seattle Center
Thu 12:27:16 46.0106 -116.9569 115° Southeast 497 921 38.900 -49 Descending Seattle Center
Thu 12:28:17 45.9517 -116.7733 115° Southeast 504 933 38.900 49 Level Seattle Center
Thu 12:29:18 45.8931 -116.5978 116° Southeast 495 917 39.000  Climbing Seattle Center
Thu 12:30:20 45.8222 -116.3850 115° Southeast 496 919 38.900 -49 Descending Seattle Center
Thu 12:31:21 45.7617 -116.2083 116° Southeast 497 921 38.900 49 Level Seattle Center
Thu 12:32:22 45.7025 -116.0300 115° Southeast 500 925 39.000  Climbing Seattle Center
Thu 12:33:23 45.6425 -115.8519 116° Southeast 500 925 38.900  Descending Seattle Center
Thu 12:34:24 45.5783 -115.6653 116° Southeast 495 917 39.000 49 Climbing Seattle Center
Thu 12:35:25 45.5192 -115.4942 116° Southeast 499 924 39.000  Level Seattle Center
Thu 12:36:26 45.4611 -115.3197 115° Southeast 506 937 39.000 49 Level Seattle Center
Thu 12:37:27 45.3919 -115.1236 117° Southeast 498 922 39.100 145 Climbing Seattle Center
Thu 12:37:49 45.3731 -115.0683 116° Southeast 495 917 39.200 429 Climbing Salt Lake Center
Thu 12:38:51 45.3133 -114.8983 116° Southeast 498 922 39.700 532 Climbing Salt Lake Center
Thu 12:39:53 45.2428 -114.7008 117° Southeast 501 929 40.300 387 Climbing Salt Lake Center
Thu 12:40:55 45.1822 -114.5311 117° Southeast 502 930 40.500 339 Climbing Salt Lake Center
Thu 12:41:57 45.1108 -114.3339 117° Southeast 502 930 41.000 242 Climbing Salt Lake Center
Thu 12:42:59 45.0503 -114.1664 117° Southeast 499 924 41.000  Level Salt Lake Center
Thu 12:44:01 44.9722 -113.9797 121° Southeast 494 914 41.000  Level Salt Lake Center
Thu 12:45:03 44.8975 -113.8225 124° Southeast 492 911 41.000  Level Salt Lake Center
Thu 12:46:05 44.8258 -113.6303 118° Southeast 497 921 41.000  Level Salt Lake Center
Thu 12:47:07 44.7658 -113.4653 117° Southeast 496 919 41.000  Level Salt Lake Center
Thu 12:48:09 44.7017 -113.2997 119° Southeast 502 930 41.000  Level Salt Lake Center
Thu 12:49:11 44.6325 -113.1081 117° Southeast 496 919 41.000  Level Salt Lake Center
Thu 12:50:13 44.5697 -112.9444 118° Southeast 499 924 41.000  Level Salt Lake Center
Thu 12:51:15 44.4989 -112.7550 118° Southeast 494 914 41.000  Level Salt Lake Center
Thu 12:52:17 44.4375 -112.5944 118° Southeast 492 911 41.000  Level Salt Lake Center
Thu 12:53:19 44.3656 -112.4058 118° Southeast 493 912 41.000  Level Salt Lake Center
Thu 12:54:21 44.3031 -112.2456 119° Southeast 492 911 41.000  Level Salt Lake Center
Thu 12:55:23 44.2303 -112.0575 118° Southeast 497 921 41.000  Level Salt Lake Center
Thu 12:56:25 44.1692 -111.8989 118° Southeast 492 911 41.000  Level Salt Lake Center
Thu 12:57:27 44.0956 -111.7142 119° Southeast 492 911 41.000  Level Salt Lake Center
Thu 12:58:29 44.0328 -111.5556 119° Southeast 492 911 41.000  Level Salt Lake Center
Thu 12:59:30 43.9614 -111.3711 118° Southeast 490 908 41.000  Level Salt Lake Center
Thu 13:00:32 43.8969 -111.2147 120° Southeast 491 909 41.000  Level Salt Lake Center
Thu 13:01:34 43.8225 -111.0328 120° Southeast 488 904 41.000  Level Salt Lake Center
Thu 13:02:36 43.7619 -110.8739 118° Southeast 490 908 41.000  Level Salt Lake Center
Thu 13:03:38 43.6861 -110.6931 120° Southeast 489 906 41.000  Level Salt Lake Center
Thu 13:04:40 43.6225 -110.5331 119° Southeast 496 919 41.000  Level Salt Lake Center
Thu 13:05:42 43.5467 -110.3511 120° Southeast 491 909 41.000  Level Salt Lake Center
Thu 13:06:44 43.4747 -110.1797 120° Southeast 497 921 41.000  Level Salt Lake Center
Thu 13:07:46 43.4083 -110.0214 120° Southeast 497 921 41.000  Level Salt Lake Center
Thu 13:08:48 43.3311 -109.8342 120° Southeast 503 932 41.000  Level Salt Lake Center
Thu 13:09:50 43.2633 -109.6775 121° Southeast 500 925 41.000  Level Salt Lake Center
Thu 13:10:52 43.1972 -109.5206 120° Southeast 498 922 41.000  Level Salt Lake Center
Thu 13:11:54 43.1206 -109.3394 120° Southeast 494 914 41.000  Level Salt Lake Center
Thu 13:12:56 43.0533 -109.1839 121° Southeast 495 917 41.000  Level Salt Lake Center
Thu 13:14:00 42.9799 -109.0132 120° Southeast  Level FlightAware Approximate
Thu 13:14:59 42.9097 -108.8550 120° Southeast 486 900 41.000  Level Salt Lake Center
Thu 13:16:01 42.8317 -108.6767 121° Southeast 490 908 41.000  Level Salt Lake Center
Thu 13:17:03 42.7642 -108.5222 121° Southeast 494 914 41.000  Level Salt Lake Center
Thu 13:18:05 42.6858 -108.3433 121° Southeast 492 911 41.000  Level Salt Lake Center
Thu 13:19:07 42.6169 -108.1886 121° Southeast 498 922 41.000  Level Salt Lake Center
Thu 13:20:09 42.5489 -108.0333 121° Southeast 499 924 41.000  Level Salt Lake Center
Thu 13:21:11 42.4686 -107.8525 121° Southeast 500 925 41.000  Level Salt Lake Center
Thu 13:22:13 42.3972 -107.6986 122° Southeast 503 932 41.000  Level Salt Lake Center
Thu 13:23:02 42.3372 -107.5664 122° Southeast 504 933 41.000  Level Denver Center
Thu 13:24:04 42.2547 -107.3867 122° Southeast 504 933 41.000  Level Denver Center
Thu 13:25:06 42.1856 -107.2342 121° Southeast 500 925 41.000  Level Denver Center
Thu 13:26:08 42.1025 -107.0567 122° Southeast 499 924 41.000  Level Denver Center
Thu 13:27:10 42.0314 -106.9039 122° Southeast 502 930 41.000  Level Denver Center
Thu 13:28:12 41.9503 -106.7283 122° Southeast 497 921 41.000  Level Denver Center
Thu 13:29:14 41.8797 -106.5797 122° Southeast 493 912 41.000  Level Denver Center
Thu 13:30:16 41.8033 -106.4186 122° Southeast 499 924 41.000  Level Denver Center
Thu 13:31:18 41.7208 -106.2431 122° Southeast 500 925 41.000  Level Denver Center
Thu 13:32:20 41.6489 -106.0931 123° Southeast 503 932 41.000  Level Denver Center
Thu 13:33:22 41.5656 -105.9183 122° Southeast 501 929 41.000  Level Denver Center
Thu 13:34:24 41.4933 -105.7700 123° Southeast 499 924 41.000  Level Denver Center
Thu 13:35:26 41.4083 -105.5944 123° Southeast 504 933 41.000  Level Denver Center
Thu 13:36:29 41.3358 -105.4458 123° Southeast 501 929 41.000  Level Denver Center
Thu 13:37:31 41.2511 -105.2711 123° Southeast 504 933 41.000  Level Denver Center
Thu 13:38:33 41.1778 -105.1242 124° Southeast 501 929 41.000  Level Denver Center
Thu 13:39:35 41.0928 -104.9508 123° Southeast 504 933 41.000  Level Denver Center
Thu 13:40:37 41.0181 -104.7994 123° Southeast 511 946 41.000  Level Denver Center
Thu 13:41:39 40.9425 -104.6517 124° Southeast 502 930 41.000  Level Denver Center
Thu 13:42:41 40.8639 -104.4939 123° Southeast 510 945 41.000  Level Denver Center
Thu 13:43:43 40.7697 -104.3067 124° Southeast 511 946 41.000  Level Denver Center
Thu 13:44:45 40.6911 -104.1519 124° Southeast 509 943 41.000  Level Denver Center
Thu 13:45:47 40.6122 -103.9986 124° Southeast 505 935 41.000  Level Denver Center
Thu 13:46:49 40.5339 -103.8450 124° Southeast 506 937 41.000  Level Denver Center
Thu 13:47:51 40.4547 -103.6906 124° Southeast 508 941 41.000  Level Denver Center
Thu 13:48:53 40.3739 -103.5367 125° Southeast 511 946 41.000  Level Denver Center
Thu 13:49:55 40.2939 -103.3833 124° Southeast 509 943 41.000  Level Denver Center
Thu 13:50:57 40.1978 -103.1992 124° Southeast 508 941 41.000  Level Denver Center
Thu 13:51:59 40.1344 -103.0781 124° Southeast 506 937 41.000  Level Denver Center
Thu 13:53:01 40.0364 -102.8942 125° Southeast 513 950 41.000  Level Denver Center
Thu 13:54:04 39.9556 -102.7417 125° Southeast 513 950 41.000  Level Denver Center
Thu 13:55:06 39.8639 -102.5714 125° Southeast 510 945 41.000  Level Denver Center
Thu 13:56:08 39.7872 -102.4267 125° Southeast 508 941 41.000  Level Denver Center
Thu 13:57:10 39.6978 -102.2600 125° Southeast 505 935 41.000  Level Denver Center
Thu 13:58:12 39.6217 -102.1214 125° Southeast 495 917 41.000  Level Denver Center
Thu 13:59:14 39.5372 -101.9578 124° Southeast 492 911 41.000  Level Denver Center
Thu 14:00:16 39.4656 -101.8183 124° Southeast 489 906 41.000  Level Denver Center
Thu 14:01:18 39.3794 -101.6539 124° Southeast 493 912 41.000  Level Denver Center
Thu 14:02:20 39.3053 -101.5125 124° Southeast 496 919 41.000  Level Denver Center
Thu 14:03:22 39.2328 -101.3681 123° Southeast 500 925 41.000  Level Denver Center
Thu 14:04:36 39.1453 -101.2014 124° Southeast 504 933 41.000  Level Denver Center
Thu 14:05:39 39.0461 -101.0147 124° Southeast 498 922 41.000  Level Denver Center
Thu 14:06:40 38.9800 -100.8508 117° Southeast 499 924 41.000  Level Denver Center
Thu 14:07:43 38.9250 -100.6975 115° Southeast 495 917 41.000  Level Denver Center
Thu 14:08:45 38.8600 -100.5153 115° Southeast 499 924 41.000  Level Denver Center
Thu 14:09:47 38.8036 -100.3619 115° Southeast 498 922 41.000  Level Denver Center
Thu 14:10:49 38.7389 -100.1831 115° Southeast 496 919 41.000  Level Denver Center
Thu 14:11:19 38.7103 -100.1042 115° Southeast 496 919 41.000  Level Kansas City Center
Thu 14:12:23 38.6550 -99.9508 115° Southeast 496 919 41.000  Level Kansas City Center
Thu 14:13:24 38.5881 -99.7725 116° Southeast 496 919 41.000  Level Kansas City Center
Thu 14:14:28 38.5303 -99.6197 116° Southeast 497 921 41.000  Level Kansas City Center
Thu 14:15:29 38.4678 -99.4489 115° Southeast 499 924 41.000  Level Kansas City Center
Thu 14:16:30 38.4078 -99.2900 116° Southeast 499 924 41.000  Level Kansas City Center
Thu 14:17:34 38.3486 -99.1336 116° Southeast 493 912 41.000  Level Kansas City Center
Thu 14:18:34 38.2889 -98.9753 116° Southeast 496 919 41.000  Level Kansas City Center
Thu 14:19:38 38.2294 -98.8197 116° Southeast 491 909 41.000  Level Kansas City Center
Thu 14:20:38 38.1711 -98.6622 115° Southeast 492 911 41.000  Level Kansas City Center
Thu 14:21:42 38.0981 -98.4739 116° Southeast 496 919 41.000  Level Kansas City Center
Thu 14:22:42 38.0375 -98.3161 116° Southeast 498 922 41.000  Level Kansas City Center
Thu 14:23:46 37.9761 -98.1625 117° Southeast 490 908 41.000  Level Kansas City Center
Thu 14:24:48 37.9153 -98.0133 117° Southeast 491 909 41.000  Level Kansas City Center
Thu 14:25:48 37.8422 -97.8275 116° Southeast 491 909 41.000  Level Kansas City Center
Thu 14:26:53 37.7747 -97.6614 117° Southeast 504 933 41.000  Level Kansas City Center
Thu 14:27:53 37.7133 -97.5069 117° Southeast 496 919 41.000  Level Kansas City Center
Thu 14:28:57 37.6547 -97.3639 117° Southeast 495 917 41.000  Level Kansas City Center
Thu 14:29:58 37.5903 -97.2092 118° Southeast 497 921 41.000  Level Kansas City Center
Thu 14:30:58 37.5131 -97.0231 118° Southeast 501 929 41.000  Level Kansas City Center
Thu 14:32:03 37.4486 -96.8689 118° Southeast 499 924 41.000  Level Kansas City Center
Thu 14:33:04 37.3833 -96.7156 118° Southeast 497 921 41.000  Level Kansas City Center
Thu 14:34:04 37.3183 -96.5608 118° Southeast 502 930 41.000  Level Kansas City Center
Thu 14:35:08 37.2528 -96.4081 118° Southeast 498 922 41.000  Level Kansas City Center
Thu 14:36:09 37.1886 -96.2531 117° Southeast 500 925 41.000  Level Kansas City Center
Thu 14:37:13 37.1100 -96.0675 118° Southeast 502 930 41.000  Level Kansas City Center
Thu 14:38:14 37.0428 -95.9144 119° Southeast 502 930 41.000  Level Kansas City Center
Thu 14:39:15 36.9772 -95.7597 118° Southeast 503 932 41.000  Level Kansas City Center
Thu 14:40:18 36.9094 -95.6056 119° Southeast 505 935 41.000  Level Kansas City Center
Thu 14:41:20 36.8436 -95.4567 119° Southeast 506 937 41.000  Level Kansas City Center
Thu 14:42:21 36.7642 -95.2761 119° Southeast 498 922 41.000  Level Kansas City Center
Thu 14:43:25 36.6975 -95.1250 119° Southeast 497 921 41.000  Level Kansas City Center
Thu 14:44:25 36.6367 -94.9875 119° Southeast 495 917 41.000  Level Kansas City Center
Thu 14:45:28 36.5703 -94.8367 119° Southeast 496 919 41.000  Level Kansas City Center
Thu 14:46:30 36.4881 -94.6597 120° Southeast 495 917 41.000  Level Kansas City Center
Thu 14:47:31 36.4203 -94.5117 120° Southeast 494 914 41.000  Level Kansas City Center
Thu 14:48:35 36.3558 -94.3619 118° Southeast 494 914 41.000  Level Kansas City Center
Thu 14:49:36 36.2864 -94.2153 120° Southeast 493 912 41.000  Level Kansas City Center
Thu 14:50:39 36.2272 -94.0642 116° Southeast 492 911 41.000  Level Kansas City Center
Thu 14:51:40 36.1839 -93.9025 108° East 494 914 41.000  Level Kansas City Center
Thu 14:52:44 36.1311 -93.7083 109° East 495 917 41.000  Level Kansas City Center
Thu 14:53:44 36.0825 -93.5417 110° East 493 912 41.000  Level Memphis Center
Thu 14:54:44 36.0386 -93.3808 109° East 493 912 41.000  Level Memphis Center
Thu 14:55:44 35.9925 -93.2175 109° East 493 912 41.000  Level Memphis Center
Thu 14:56:44 35.9481 -93.0622 109° East 493 912 41.000  Level Memphis Center
Thu 14:57:44 35.9033 -92.8992 109° East 493 912 41.000  Level Memphis Center
Thu 14:58:44 35.8564 -92.7414 110° East 493 912 41.000  Level Memphis Center
Thu 15:00:00 35.7940 -92.5465 110° East  Level FlightAware Approximate
Thu 15:00:44 35.7622 -92.4217 110° East 493 912 41.000  Level Memphis Center
Thu 15:01:44 35.7147 -92.2592 110° East 493 912 41.000  Level Memphis Center
Thu 15:02:44 35.6692 -92.0972 109° East 493 912 41.000  Level Memphis Center
Thu 15:03:44 35.6192 -91.9353 111° Southeast 493 912 41.000  Level Memphis Center
Thu 15:04:44 35.5708 -91.7736 110° East 493 912 41.000  Level Memphis Center
Thu 15:05:44 35.5225 -91.6172 111° Southeast 493 912 41.000  Level Memphis Center
Thu 15:06:44 35.4719 -91.4558 111° Southeast 493 912 41.000  Level Memphis Center
Thu 15:07:44 35.4272 -91.2997 109° East 493 912 41.000  Level Memphis Center
Thu 15:08:44 35.3764 -91.1336 111° Southeast 498 922 41.000  Level Memphis Center
Thu 15:09:44 35.3272 -90.9756 111° Southeast 503 932 41.000  Level Memphis Center
Thu 15:10:44 35.2819 -90.8353 112° Southeast 497 921 41.000  Level Memphis Center
Thu 15:11:44 35.2344 -90.6747 110° East 497 921 41.000  Level Memphis Center
Thu 15:12:44 35.1844 -90.5119 111° Southeast 492 911 41.000  Level Memphis Center
Thu 15:13:44 35.1347 -90.3544 111° Southeast 492 911 41.000  Level Memphis Center
Thu 15:14:44 35.0844 -90.1972 111° Southeast 492 911 41.000  Level Memphis Center
Thu 15:15:44 35.0342 -90.0350 111° Southeast 492 911 41.000  Level Memphis Center
Thu 15:16:44 34.9708 -89.8656 114° Southeast 492 911 41.000  Level Memphis Center
Thu 15:17:44 34.9036 -89.7267 121° Southeast 509 943 41.000  Level Memphis Center
Thu 15:18:44 34.8336 -89.5450 115° Southeast 519 961 41.000  Level Memphis Center
Thu 15:20:00 34.7558 -89.3632 117° Southeast  Level FlightAware Approximate
Thu 15:20:44 34.7125 -89.2631 117° Southeast 504 933 41.000  Level Memphis Center
Thu 15:21:44 34.6483 -89.1150 118° Southeast 498 922 41.000  Level Memphis Center
Thu 15:22:44 34.5822 -88.9597 117° Southeast 503 932 41.000  Level Memphis Center
Thu 15:23:44 34.5200 -88.8219 119° Southeast 489 906 41.000  Level Memphis Center
Thu 15:24:44 34.4553 -88.6694 117° Southeast 484 896 41.000  Level Memphis Center
Thu 15:26:00 34.3764 -88.4901 118° Southeast  Level FlightAware Approximate
Thu 15:26:44 34.3236 -88.3678 118° Southeast 495 917 41.000  Level Memphis Center
Thu 15:27:44 34.2564 -88.2161 118° Southeast 501 929 41.000  Level Memphis Center
Thu 15:28:44 34.1825 -88.0447 117° Southeast 514 953 41.000  Level Memphis Center
Thu 15:30:20 34.0825 -87.8261 119° Southeast 505 935 41.000  Level Atlanta Center
Thu 15:31:20 34.0139 -87.6750 119° Southeast 505 935 41.000  Level Atlanta Center
Thu 15:32:20 33.9494 -87.5272 118° Southeast 505 935 41.000  Level Atlanta Center
Thu 15:33:20 33.8825 -87.3767 118° Southeast 510 945 41.000  Level Atlanta Center
Thu 15:34:20 33.8156 -87.2267 118° Southeast 505 935 41.000  Level Atlanta Center
Thu 15:35:20 33.7506 -87.0794 118° Southeast 505 935 41.000  Level Atlanta Center
Thu 15:36:20 33.6811 -86.9294 119° Southeast 506 937 41.000  Level Atlanta Center
Thu 15:37:20 33.5617 -86.8508 151° Southeast 481 892 41.000  Level Atlanta Center
Thu 15:38:20 33.4314 -86.7992 162° South 467 864 41.000  Level Atlanta Center
Thu 15:39:20 33.3031 -86.7506 162° South 479 887 41.000  Level Atlanta Center
Thu 15:40:20 33.1625 -86.6914 161° South 485 898 41.000  Level Atlanta Center
Thu 15:41:20 33.0364 -86.6356 160° South 485 898 41.000  Level Atlanta Center
Thu 15:42:20 32.9017 -86.5897 164° South 490 908 41.000  Level Atlanta Center
Thu 15:43:20 32.7711 -86.5414 163° South 496 919 41.000  Level Atlanta Center
Thu 15:44:20 32.6386 -86.4858 161° South 496 919 41.000  Level Atlanta Center
Thu 15:45:20 32.5061 -86.4353 162° South 496 919 41.000  Level Atlanta Center
Thu 15:46:20 32.3714 -86.3825 162° South 501 929 41.000  Level Atlanta Center
Thu 15:47:20 32.2636 -86.3403 162° South 508 941 41.000  Level Atlanta Center
Thu 15:48:20 32.1406 -86.2194 140° Southeast 488 904 41.000  Level Atlanta Center
Thu 15:49:20 32.0422 -86.1117 137° Southeast 513 950 41.000  Level Atlanta Center
Thu 15:53:11 31.6625 -85.6581 134° Southeast 478 885 41.000  Level Jacksonville Center
Thu 15:54:11 31.5647 -85.5431 135° Southeast 496 919 41.000  Level Jacksonville Center
Thu 15:55:11 31.4689 -85.4281 134° Southeast 484 896 41.000  Level Jacksonville Center
Thu 15:56:11 31.3708 -85.3183 136° Southeast 477 884 41.000  Level Jacksonville Center
Thu 15:57:11 31.2792 -85.1994 132° Southeast 477 884 41.000 -300 Level Jacksonville Center
Thu 15:58:11 31.2081 -85.0811 125° Southeast 483 895 40.400 -1.000 Descending Jacksonville Center
Thu 15:59:11 31.1353 -84.9433 122° Southeast 497 921 39.000 -700 Descending Jacksonville Center
Thu 16:00:11 31.0622 -84.8036 121° Southeast 503 932 39.000 -600 Level Jacksonville Center
Thu 16:01:11 31.0058 -84.6547 114° Southeast 503 932 37.800 -1.150 Descending Jacksonville Center
Thu 16:02:11 30.9808 -84.4967 100° East 496 919 36.700 -1.150 Descending Jacksonville Center
Thu 16:03:11 30.9556 -84.3414 101° East 490 908 35.500 -850 Descending Jacksonville Center
Thu 16:04:11 30.9303 -84.1833 101° East 490 908 35.000 -250 Descending Jacksonville Center
Thu 16:05:11 30.9044 -84.0258 101° East 490 908 35.000  Level Jacksonville Center
Thu 16:06:11 30.8767 -83.8706 102° East 490 908 35.000  Level Jacksonville Center
Thu 16:07:11 30.8506 -83.7128 101° East 490 908 35.000 -250 Level Jacksonville Center
Thu 16:08:11 30.8264 -83.5578 100° East 490 908 34.500 -1.200 Descending Jacksonville Center
Thu 16:09:11 30.8022 -83.3883 99° East 490 908 32.600 -1.800 Descending Jacksonville Center
Thu 16:10:11 30.7567 -83.2358 109° East 490 908 30.900 -900 Descending Jacksonville Center
Thu 16:11:11 30.6714 -83.1003 126° Southeast 490 908 30.800 -1.000 Descending Jacksonville Center
Thu 16:12:11 30.5900 -82.9697 126° Southeast 501 929 28.900 -1.900 Descending Jacksonville Center
Thu 16:13:11 30.5108 -82.8444 126° Southeast 501 929 27.000 -2.000 Descending Jacksonville Center
Thu 16:14:11 30.4333 -82.7239 127° Southeast 487 901 24.900 -1.550 Descending Jacksonville Center
Thu 16:15:11 30.3478 -82.6133 132° Southeast 476 882 23.900 -450 Descending Jacksonville Center
Thu 16:16:11 30.2222 -82.5944 173° South 430 797 24.000 -150 Climbing Jacksonville Center
Thu 16:17:11 30.0886 -82.5853 177° South 446 826 23.600 -1.200 Descending Jacksonville Center
Thu 16:18:11 29.9800 -82.5472 163° South 455 843 21.600 -1.900 Descending Jacksonville Center
Thu 16:19:11 29.8836 -82.4614 142° Southeast 434 803 19.800 -1.850 Descending Jacksonville Center
Thu 16:20:11 29.7936 -82.3733 140° Southeast 434 803 17.900 -2.065 Descending Jacksonville Center
Thu 16:20:44 29.7328 -82.3186 142° Southeast 413 764 16.600 -1.800 Descending Jacksonville Center
Thu 16:21:11 29.7078 -82.2875 133° Southeast 422 782 16.100 -1.527 Descending Jacksonville Center
Thu 16:21:39 29.6886 -82.2208 108° East 385 713 15.200 -1.700 Descending Jacksonville Center
Thu 16:22:11 29.6883 -82.1658 90° East 373 690 14.400 -1.967 Descending Jacksonville Center
Thu 16:22:40 29.6900 -82.0942 88° East 377 698 13.200 -1.900 Descending Jacksonville Center
Thu 16:23:11 29.6853 -82.0486 97° East 363 673 12.500 -1.770 Descending Jacksonville Center
Thu 16:23:41 29.6869 -81.9769 88° East 368 681 11.400 -1.800 Descending Jacksonville Center
Thu 16:24:11 29.6867 -81.9339 90° East 353 653 10.700 -1.448 Descending Jacksonville Center
Thu 16:24:39 29.6842 -81.8647 92° East 355 658 10.000 -800 Descending Jacksonville Center
Thu 16:25:11 29.6836 -81.8217 91° East 358 663 9.900  Descending Jacksonville Center
Thu 16:25:47 29.6831 -81.7522 91° East 311 576 10.000  Climbing Jacksonville Center
Thu 16:26:11 29.6828 -81.7236 91° East 331 613 9.900  Descending Jacksonville Center
Thu 16:26:47 29.6822 -81.6589 91° East 286 529 10.000 100 Climbing Jacksonville Center
Thu 16:27:11 29.6800 -81.6303 95° East 309 573 10.000  Level Jacksonville Center
Thu 16:27:54 29.6750 -81.5517 94° East 296 549 10.000  Level Jacksonville Center
Thu 16:28:11 29.6706 -81.5372 109° East 290 538 10.000 -98 Level Jacksonville Center
Thu 16:28:55 29.6200 -81.4831 137° Southeast 298 552 9.900 -300 Descending Jacksonville Center
Thu 16:29:11 29.6114 -81.4711 130° Southeast 273 505 9.700 -1.082 Descending Jacksonville Center
Thu 16:29:56 29.5628 -81.4147 135° Southeast 295 546 8.800 -1.100 Descending Jacksonville Center
Thu 16:30:11 29.5542 -81.4053 136° Southeast 278 515 8.600 -885 Descending Jacksonville Center
Thu 16:30:57 29.5056 -81.3511 136° Southeast 286 529 7.900 -897 Descending Jacksonville Center
Thu 16:31:58 29.4528 -81.2900 135° Southeast 272 504 7.000 -738 Descending Jacksonville Center
Thu 16:32:59 29.3933 -81.2217 135° Southeast 273 505 6.400 -844 Descending Jacksonville Center
Thu 16:34:06 29.3361 -81.1561 135° Southeast 273 505 5.200 -730 Descending Jacksonville Center
Thu 16:34:54 29.2917 -81.1019 133° Southeast 257 476 5.000 -277 Descending Jacksonville Center
Thu 16:35:11 29.2872 -81.0831 105° East 264 489 4.900 -492 Descending Jacksonville Center
Thu 16:35:55 29.2967 -81.0233 80° East 252 467 4.500 -600 Descending Jacksonville Center
Thu 16:36:11 29.2944 -81.0044 98° East 239 443 4.300 -492 Descending Jacksonville Center
Thu 16:36:56 29.3039 -80.9494 79° East 236 438 4.000 -500 Descending Jacksonville Center
Thu 16:37:11 29.3036 -80.9303 91° East 233 431 3.800 -1.475 Descending Jacksonville Center
Thu 16:37:57 29.2864 -80.8903 116° Southeast 203 377 2.500 -1.109 Descending Jacksonville Center
Thu 16:39:10 29.2367 -80.9175 206° Southwest 158 293 1.600 -422 Descending Jacksonville Center
Thu 16:40:05 29.2186 -80.9606 244° Southwest 151 280 1.600 -310 Level Jacksonville Center
Thu 16:41:06 29.2025 -81.0014 246° West 147 272 1.000 -678 Descending Jacksonville Center
Thu 16:42:00 29.1864 -81.0397 244° Southwest 137 254 300 -778 Descending Jacksonville Center
Thu 16:43:00 29.1667 -81.0500 231° Southwest  Level FlightAware Approximate
Thu 16:50:00 29.1799 -81.0581 231° Southwest  Level Estimated
Thu 16:51:00 29.1799 -81.0581 231° Southwest  Level Estimated
Thu 16:52:00 29.1799 -81.0581 231° Southwest  Level Estimated

Login

Don't have an account? Register now (free) for customized features, flight alerts, and more!